sensor_id;sensor_type;location;lat;lon;timestamp;temperature;humidity
38860;DHT22;24609;48.316;16.174;2022-12-07T00:03:31;4.80;99.90
38860;DHT22;24609;48.316;16.174;2022-12-07T00:05:58;4.80;99.90
38860;DHT22;24609;48.316;16.174;2022-12-07T00:08:24;4.80;99.90
38860;DHT22;24609;48.316;16.174;2022-12-07T00:10:49;4.80;99.90
38860;DHT22;24609;48.316;16.174;2022-12-07T00:13:15;4.80;99.90
38860;DHT22;24609;48.316;16.174;2022-12-07T00:15:41;4.80;99.90
38860;DHT22;24609;48.316;16.174;2022-12-07T00:18:06;4.80;99.90
38860;DHT22;24609;48.316;16.174;2022-12-07T00:20:32;4.80;99.90
38860;DHT22;24609;48.316;16.174;2022-12-07T00:22:58;4.80;99.90
38860;DHT22;24609;48.316;16.174;2022-12-07T00:25:24;4.80;99.90
38860;DHT22;24609;48.316;16.174;2022-12-07T00:27:51;4.80;99.90
38860;DHT22;24609;48.316;16.174;2022-12-07T00:30:17;4.90;99.90
38860;DHT22;24609;48.316;16.174;2022-12-07T00:32:43;4.80;99.90
38860;DHT22;24609;48.316;16.174;2022-12-07T00:35:08;4.80;99.90
38860;DHT22;24609;48.316;16.174;2022-12-07T00:37:34;4.80;99.90
38860;DHT22;24609;48.316;16.174;2022-12-07T00:39:59;4.80;99.90
38860;DHT22;24609;48.316;16.174;2022-12-07T00:42:25;4.80;99.90
38860;DHT22;24609;48.316;16.174;2022-12-07T00:44:51;4.70;99.90
38860;DHT22;24609;48.316;16.174;2022-12-07T00:47:16;4.70;99.90
38860;DHT22;24609;48.316;16.174;2022-12-07T00:49:42;4.70;99.90
38860;DHT22;24609;48.316;16.174;2022-12-07T00:52:08;4.70;99.90
38860;DHT22;24609;48.316;16.174;2022-12-07T00:54:33;4.60;99.90
38860;DHT22;24609;48.316;16.174;2022-12-07T00:56:59;4.70;99.90
38860;DHT22;24609;48.316;16.174;2022-12-07T00:59:24;4.70;99.90
38860;DHT22;24609;48.316;16.174;2022-12-07T01:01:50;4.60;99.90
38860;DHT22;24609;48.316;16.174;2022-12-07T01:04:16;4.60;99.90
38860;DHT22;24609;48.316;16.174;2022-12-07T01:06:41;4.70;99.90
38860;DHT22;24609;48.316;16.174;2022-12-07T01:09:07;4.70;99.90
38860;DHT22;24609;48.316;16.174;2022-12-07T01:11:33;4.60;99.90
38860;DHT22;24609;48.316;16.174;2022-12-07T01:14:00;4.70;99.90
38860;DHT22;24609;48.316;16.174;2022-12-07T01:16:27;4.70;99.90
38860;DHT22;24609;48.316;16.174;2022-12-07T01:18:55;4.70;99.90
38860;DHT22;24609;48.316;16.174;2022-12-07T01:21:33;4.70;99.90
38860;DHT22;24609;48.316;16.174;2022-12-07T01:24:01;4.70;99.90
38860;DHT22;24609;48.316;16.174;2022-12-07T01:26:27;4.70;99.90
38860;DHT22;24609;48.316;16.174;2022-12-07T01:28:53;4.60;99.90
38860;DHT22;24609;48.316;16.174;2022-12-07T01:31:22;4.70;99.90
38860;DHT22;24609;48.316;16.174;2022-12-07T01:33:54;4.70;99.90
38860;DHT22;24609;48.316;16.174;2022-12-07T01:36:23;4.60;99.90
38860;DHT22;24609;48.316;16.174;2022-12-07T01:38:50;4.70;99.90
38860;DHT22;24609;48.316;16.174;2022-12-07T01:41:17;4.70;99.90
38860;DHT22;24609;48.316;16.174;2022-12-07T01:44:09;4.70;99.90
38860;DHT22;24609;48.316;16.174;2022-12-07T01:46:35;4.70;99.90
38860;DHT22;24609;48.316;16.174;2022-12-07T01:49:01;4.60;99.90
38860;DHT22;24609;48.316;16.174;2022-12-07T01:51:28;4.60;99.90
38860;DHT22;24609;48.316;16.174;2022-12-07T01:53:54;4.60;99.90
38860;DHT22;24609;48.316;16.174;2022-12-07T01:56:23;4.60;99.90
38860;DHT22;24609;48.316;16.174;2022-12-07T01:58:49;4.70;99.90
38860;DHT22;24609;48.316;16.174;2022-12-07T02:01:16;4.60;99.90
38860;DHT22;24609;48.316;16.174;2022-12-07T02:03:44;4.60;99.90
38860;DHT22;24609;48.316;16.174;2022-12-07T02:06:13;4.60;99.90
38860;DHT22;24609;48.316;16.174;2022-12-07T02:08:41;4.60;99.90
38860;DHT22;24609;48.316;16.174;2022-12-07T02:11:08;4.60;99.90
38860;DHT22;24609;48.316;16.174;2022-12-07T02:13:36;4.60;99.90
38860;DHT22;24609;48.316;16.174;2022-12-07T02:21:46;4.60;99.90
38860;DHT22;24609;48.316;16.174;2022-12-07T02:30:02;4.60;99.90
38860;DHT22;24609;48.316;16.174;2022-12-07T02:35:11;4.50;99.90
38860;DHT22;24609;48.316;16.174;2022-12-07T02:37:47;4.60;99.90
38860;DHT22;24609;48.316;16.174;2022-12-07T02:42:55;4.60;99.90
38860;DHT22;24609;48.316;16.174;2022-12-07T02:45:25;4.60;99.90
38860;DHT22;24609;48.316;16.174;2022-12-07T02:47:53;4.50;99.90
38860;DHT22;24609;48.316;16.174;2022-12-07T02:50:20;4.50;99.90
38860;DHT22;24609;48.316;16.174;2022-12-07T02:52:46;4.50;99.90
38860;DHT22;24609;48.316;16.174;2022-12-07T02:55:13;4.50;99.90
38860;DHT22;24609;48.316;16.174;2022-12-07T03:00:27;4.50;99.90
38860;DHT22;24609;48.316;16.174;2022-12-07T03:03:06;4.50;99.90
38860;DHT22;24609;48.316;16.174;2022-12-07T03:05:55;4.50;99.90
38860;DHT22;24609;48.316;16.174;2022-12-07T03:08:27;4.50;99.90
38860;DHT22;24609;48.316;16.174;2022-12-07T03:11:25;4.50;99.90
38860;DHT22;24609;48.316;16.174;2022-12-07T03:14:15;4.50;99.90
38860;DHT22;24609;48.316;16.174;2022-12-07T03:16:48;4.50;99.90
38860;DHT22;24609;48.316;16.174;2022-12-07T03:19:18;4.50;99.90
38860;DHT22;24609;48.316;16.174;2022-12-07T03:21:50;4.40;99.90
38860;DHT22;24609;48.316;16.174;2022-12-07T03:24:21;4.50;99.90
38860;DHT22;24609;48.316;16.174;2022-12-07T03:26:55;4.50;99.90
38860;DHT22;24609;48.316;16.174;2022-12-07T03:29:30;4.40;99.90
38860;DHT22;24609;48.316;16.174;2022-12-07T03:34:58;4.40;99.90
38860;DHT22;24609;48.316;16.174;2022-12-07T03:37:56;4.40;99.90
38860;DHT22;24609;48.316;16.174;2022-12-07T03:40:44;4.40;99.90
38860;DHT22;24609;48.316;16.174;2022-12-07T03:43:10;4.40;99.90
38860;DHT22;24609;48.316;16.174;2022-12-07T03:45:40;4.30;99.90
38860;DHT22;24609;48.316;16.174;2022-12-07T03:50:54;4.20;99.90
38860;DHT22;24609;48.316;16.174;2022-12-07T03:53:40;4.20;99.90
38860;DHT22;24609;48.316;16.174;2022-12-07T03:56:09;4.20;99.90
38860;DHT22;24609;48.316;16.174;2022-12-07T03:58:36;4.20;99.90
38860;DHT22;24609;48.316;16.174;2022-12-07T04:01:02;4.20;99.90
38860;DHT22;24609;48.316;16.174;2022-12-07T04:03:28;4.20;99.90
38860;DHT22;24609;48.316;16.174;2022-12-07T04:05:54;4.10;99.90
38860;DHT22;24609;48.316;16.174;2022-12-07T04:08:20;4.10;99.90
38860;DHT22;24609;48.316;16.174;2022-12-07T04:10:46;4.10;99.90
38860;DHT22;24609;48.316;16.174;2022-12-07T04:13:11;4.10;99.90
38860;DHT22;24609;48.316;16.174;2022-12-07T04:15:37;4.10;99.90
38860;DHT22;24609;48.316;16.174;2022-12-07T04:18:03;4.00;99.90
38860;DHT22;24609;48.316;16.174;2022-12-07T04:20:28;4.00;99.90
38860;DHT22;24609;48.316;16.174;2022-12-07T04:22:54;4.00;99.90
38860;DHT22;24609;48.316;16.174;2022-12-07T04:25:20;4.00;99.90
38860;DHT22;24609;48.316;16.174;2022-12-07T04:27:45;4.00;99.90
38860;DHT22;24609;48.316;16.174;2022-12-07T04:30:11;4.10;99.90
38860;DHT22;24609;48.316;16.174;2022-12-07T04:32:37;4.10;99.90
38860;DHT22;24609;48.316;16.174;2022-12-07T04:35:03;4.10;99.90
38860;DHT22;24609;48.316;16.174;2022-12-07T04:37:29;4.10;99.90
38860;DHT22;24609;48.316;16.174;2022-12-07T04:39:55;4.10;99.90
38860;DHT22;24609;48.316;16.174;2022-12-07T04:42:20;4.10;99.90
38860;DHT22;24609;48.316;16.174;2022-12-07T04:44:46;4.20;99.90
38860;DHT22;24609;48.316;16.174;2022-12-07T04:47:12;4.20;99.90
38860;DHT22;24609;48.316;16.174;2022-12-07T04:49:37;4.10;99.90
38860;DHT22;24609;48.316;16.174;2022-12-07T04:52:03;4.10;99.90
38860;DHT22;24609;48.316;16.174;2022-12-07T04:54:29;4.10;99.90
38860;DHT22;24609;48.316;16.174;2022-12-07T04:56:54;4.10;99.90
38860;DHT22;24609;48.316;16.174;2022-12-07T04:59:20;4.10;99.90
38860;DHT22;24609;48.316;16.174;2022-12-07T05:01:46;4.10;99.90
38860;DHT22;24609;48.316;16.174;2022-12-07T05:04:12;4.00;99.90
38860;DHT22;24609;48.316;16.174;2022-12-07T05:06:38;4.00;99.90
38860;DHT22;24609;48.316;16.174;2022-12-07T05:09:04;4.10;99.90
38860;DHT22;24609;48.316;16.174;2022-12-07T05:11:30;4.10;99.90
38860;DHT22;24609;48.316;16.174;2022-12-07T05:14:11;4.00;99.90
38860;DHT22;24609;48.316;16.174;2022-12-07T05:16:37;4.00;99.90
38860;DHT22;24609;48.316;16.174;2022-12-07T05:19:03;4.00;99.90
38860;DHT22;24609;48.316;16.174;2022-12-07T05:21:29;4.10;99.90
38860;DHT22;24609;48.316;16.174;2022-12-07T05:23:54;4.10;99.90
38860;DHT22;24609;48.316;16.174;2022-12-07T05:26:21;4.10;99.90
38860;DHT22;24609;48.316;16.174;2022-12-07T05:28:54;4.00;99.90
38860;DHT22;24609;48.316;16.174;2022-12-07T05:31:20;4.00;99.90
38860;DHT22;24609;48.316;16.174;2022-12-07T05:33:47;4.10;99.90
38860;DHT22;24609;48.316;16.174;2022-12-07T05:36:13;4.00;99.90
38860;DHT22;24609;48.316;16.174;2022-12-07T05:38:38;4.00;99.90
38860;DHT22;24609;48.316;16.174;2022-12-07T05:41:06;4.00;99.90
38860;DHT22;24609;48.316;16.174;2022-12-07T05:43:32;4.00;99.90
38860;DHT22;24609;48.316;16.174;2022-12-07T05:45:58;4.10;99.90
38860;DHT22;24609;48.316;16.174;2022-12-07T05:48:25;4.00;99.90
38860;DHT22;24609;48.316;16.174;2022-12-07T05:50:51;4.00;99.90
38860;DHT22;24609;48.316;16.174;2022-12-07T05:53:17;4.00;99.90
38860;DHT22;24609;48.316;16.174;2022-12-07T05:55:43;4.00;99.90
38860;DHT22;24609;48.316;16.174;2022-12-07T05:58:10;3.90;99.90
38860;DHT22;24609;48.316;16.174;2022-12-07T06:00:55;3.90;99.90
38860;DHT22;24609;48.316;16.174;2022-12-07T06:03:20;3.90;99.90
38860;DHT22;24609;48.316;16.174;2022-12-07T06:05:46;3.90;99.90
38860;DHT22;24609;48.316;16.174;2022-12-07T06:08:12;3.90;99.90
38860;DHT22;24609;48.316;16.174;2022-12-07T06:10:37;3.90;99.90
38860;DHT22;24609;48.316;16.174;2022-12-07T06:13:03;3.90;99.90
38860;DHT22;24609;48.316;16.174;2022-12-07T06:15:29;3.90;99.90
38860;DHT22;24609;48.316;16.174;2022-12-07T06:17:54;3.90;99.90
38860;DHT22;24609;48.316;16.174;2022-12-07T06:20:20;3.90;99.90
38860;DHT22;24609;48.316;16.174;2022-12-07T06:22:46;3.90;99.90
38860;DHT22;24609;48.316;16.174;2022-12-07T06:25:11;3.90;99.90
38860;DHT22;24609;48.316;16.174;2022-12-07T06:27:37;3.90;99.90
38860;DHT22;24609;48.316;16.174;2022-12-07T06:30:03;3.90;99.90
38860;DHT22;24609;48.316;16.174;2022-12-07T06:32:38;3.90;99.90
38860;DHT22;24609;48.316;16.174;2022-12-07T06:35:04;3.80;99.90
38860;DHT22;24609;48.316;16.174;2022-12-07T06:37:30;3.80;99.90
38860;DHT22;24609;48.316;16.174;2022-12-07T06:39:55;3.80;99.90
38860;DHT22;24609;48.316;16.174;2022-12-07T06:42:21;3.80;99.90
38860;DHT22;24609;48.316;16.174;2022-12-07T06:44:47;3.90;99.90
38860;DHT22;24609;48.316;16.174;2022-12-07T06:47:13;3.80;99.90
38860;DHT22;24609;48.316;16.174;2022-12-07T06:49:38;3.90;99.90
38860;DHT22;24609;48.316;16.174;2022-12-07T06:52:04;3.90;99.90
38860;DHT22;24609;48.316;16.174;2022-12-07T06:54:31;3.90;99.90
38860;DHT22;24609;48.316;16.174;2022-12-07T06:56:56;3.90;99.90
38860;DHT22;24609;48.316;16.174;2022-12-07T06:59:22;3.90;99.90
38860;DHT22;24609;48.316;16.174;2022-12-07T07:01:48;3.90;99.90
38860;DHT22;24609;48.316;16.174;2022-12-07T07:04:13;3.90;99.90
38860;DHT22;24609;48.316;16.174;2022-12-07T07:06:39;4.00;99.90
38860;DHT22;24609;48.316;16.174;2022-12-07T07:09:05;4.00;99.90
38860;DHT22;24609;48.316;16.174;2022-12-07T07:11:30;4.00;99.90
38860;DHT22;24609;48.316;16.174;2022-12-07T07:13:56;4.10;99.90
38860;DHT22;24609;48.316;16.174;2022-12-07T07:16:24;4.10;99.90
38860;DHT22;24609;48.316;16.174;2022-12-07T07:18:50;4.10;99.90
38860;DHT22;24609;48.316;16.174;2022-12-07T07:21:16;4.10;99.90
38860;DHT22;24609;48.316;16.174;2022-12-07T07:23:41;4.10;99.90
38860;DHT22;24609;48.316;16.174;2022-12-07T07:26:07;4.10;99.90
38860;DHT22;24609;48.316;16.174;2022-12-07T07:28:32;4.10;99.90
38860;DHT22;24609;48.316;16.174;2022-12-07T07:30:58;4.10;99.90
38860;DHT22;24609;48.316;16.174;2022-12-07T07:33:24;4.10;99.90
38860;DHT22;24609;48.316;16.174;2022-12-07T07:35:49;4.20;99.90
38860;DHT22;24609;48.316;16.174;2022-12-07T07:38:15;4.20;99.90
38860;DHT22;24609;48.316;16.174;2022-12-07T07:40:41;4.20;99.90
38860;DHT22;24609;48.316;16.174;2022-12-07T07:43:06;4.20;99.90
38860;DHT22;24609;48.316;16.174;2022-12-07T07:45:32;4.20;99.90
38860;DHT22;24609;48.316;16.174;2022-12-07T07:47:58;4.30;99.90
38860;DHT22;24609;48.316;16.174;2022-12-07T07:50:23;4.30;99.90
38860;DHT22;24609;48.316;16.174;2022-12-07T07:52:49;4.40;99.90
38860;DHT22;24609;48.316;16.174;2022-12-07T07:55:15;4.40;99.90
38860;DHT22;24609;48.316;16.174;2022-12-07T07:57:41;4.40;99.90
38860;DHT22;24609;48.316;16.174;2022-12-07T08:00:11;4.50;99.90
38860;DHT22;24609;48.316;16.174;2022-12-07T08:02:37;4.50;99.90
38860;DHT22;24609;48.316;16.174;2022-12-07T08:05:04;4.60;99.90
38860;DHT22;24609;48.316;16.174;2022-12-07T08:07:29;4.70;99.90
38860;DHT22;24609;48.316;16.174;2022-12-07T08:09:55;4.80;99.90
38860;DHT22;24609;48.316;16.174;2022-12-07T08:12:21;4.90;99.90
38860;DHT22;24609;48.316;16.174;2022-12-07T08:14:46;5.00;99.90
38860;DHT22;24609;48.316;16.174;2022-12-07T08:17:12;5.00;99.90
38860;DHT22;24609;48.316;16.174;2022-12-07T08:19:38;5.00;99.90
38860;DHT22;24609;48.316;16.174;2022-12-07T08:22:04;5.00;99.90
38860;DHT22;24609;48.316;16.174;2022-12-07T08:24:29;5.10;99.90
38860;DHT22;24609;48.316;16.174;2022-12-07T08:26:55;5.10;99.90
38860;DHT22;24609;48.316;16.174;2022-12-07T08:29:21;5.10;99.90
38860;DHT22;24609;48.316;16.174;2022-12-07T08:31:46;5.30;99.90
38860;DHT22;24609;48.316;16.174;2022-12-07T08:34:12;5.40;99.90
38860;DHT22;24609;48.316;16.174;2022-12-07T08:36:38;5.50;99.90
38860;DHT22;24609;48.316;16.174;2022-12-07T08:39:04;5.50;99.90
38860;DHT22;24609;48.316;16.174;2022-12-07T08:41:31;5.50;99.90
38860;DHT22;24609;48.316;16.174;2022-12-07T08:43:57;5.40;99.90
38860;DHT22;24609;48.316;16.174;2022-12-07T08:46:35;5.20;99.90
38860;DHT22;24609;48.316;16.174;2022-12-07T08:49:27;5.30;99.90
38860;DHT22;24609;48.316;16.174;2022-12-07T08:51:56;5.40;99.90
38860;DHT22;24609;48.316;16.174;2022-12-07T08:54:22;5.20;99.90
38860;DHT22;24609;48.316;16.174;2022-12-07T08:56:49;5.20;99.90
38860;DHT22;24609;48.316;16.174;2022-12-07T08:59:17;5.40;99.90
38860;DHT22;24609;48.316;16.174;2022-12-07T09:01:43;5.50;99.90
38860;DHT22;24609;48.316;16.174;2022-12-07T09:04:09;5.70;99.90
38860;DHT22;24609;48.316;16.174;2022-12-07T09:06:34;6.10;52.80
38860;DHT22;24609;48.316;16.174;2022-12-07T09:09:01;7.20;8.90
38860;DHT22;24609;48.316;16.174;2022-12-07T09:11:27;7.60;23.50
38860;DHT22;24609;48.316;16.174;2022-12-07T09:13:53;8.70;33.80
38860;DHT22;24609;48.316;16.174;2022-12-07T09:16:19;9.40;33.40
38860;DHT22;24609;48.316;16.174;2022-12-07T09:18:44;9.40;35.80
38860;DHT22;24609;48.316;16.174;2022-12-07T09:21:10;10.80;36.00
38860;DHT22;24609;48.316;16.174;2022-12-07T09:23:35;12.10;39.70
38860;DHT22;24609;48.316;16.174;2022-12-07T09:26:03;12.30;43.70
38860;DHT22;24609;48.316;16.174;2022-12-07T09:28:33;11.30;38.20
38860;DHT22;24609;48.316;16.174;2022-12-07T09:30:58;10.10;52.30
38860;DHT22;24609;48.316;16.174;2022-12-07T09:33:24;9.80;38.60
38860;DHT22;24609;48.316;16.174;2022-12-07T09:35:51;11.00;37.70
38860;DHT22;24609;48.316;16.174;2022-12-07T09:38:18;11.60;39.50
38860;DHT22;24609;48.316;16.174;2022-12-07T09:40:44;10.20;43.20
38860;DHT22;24609;48.316;16.174;2022-12-07T09:43:23;9.60;37.60
38860;DHT22;24609;48.316;16.174;2022-12-07T09:45:51;10.30;35.40
38860;DHT22;24609;48.316;16.174;2022-12-07T09:48:25;10.80;34.70
38860;DHT22;24609;48.316;16.174;2022-12-07T09:50:55;10.10;35.30
38860;DHT22;24609;48.316;16.174;2022-12-07T09:53:32;10.00;33.20
38860;DHT22;24609;48.316;16.174;2022-12-07T09:55:59;10.80;31.70
38860;DHT22;24609;48.316;16.174;2022-12-07T09:58:27;12.50;35.20
38860;DHT22;24609;48.316;16.174;2022-12-07T10:00:57;13.00;39.90
38860;DHT22;24609;48.316;16.174;2022-12-07T10:03:26;10.30;47.90
38860;DHT22;24609;48.316;16.174;2022-12-07T10:05:52;9.40;48.90
38860;DHT22;24609;48.316;16.174;2022-12-07T10:08:18;9.50;49.80
38860;DHT22;24609;48.316;16.174;2022-12-07T10:10:46;9.90;51.50
38860;DHT22;24609;48.316;16.174;2022-12-07T10:13:17;10.20;49.30
38860;DHT22;24609;48.316;16.174;2022-12-07T10:15:47;9.90;48.50
38860;DHT22;24609;48.316;16.174;2022-12-07T10:26:35;9.80;48.20
38860;DHT22;24609;48.316;16.174;2022-12-07T10:29:34;10.00;47.10
38860;DHT22;24609;48.316;16.174;2022-12-07T10:32:21;9.60;47.60
38860;DHT22;24609;48.316;16.174;2022-12-07T10:34:49;9.40;45.70
38860;DHT22;24609;48.316;16.174;2022-12-07T10:37:19;9.50;44.20
38860;DHT22;24609;48.316;16.174;2022-12-07T10:39:48;10.50;44.50
38860;DHT22;24609;48.316;16.174;2022-12-07T10:44:48;10.80;42.10
38860;DHT22;24609;48.316;16.174;2022-12-07T10:53:13;12.70;45.70
38860;DHT22;24609;48.316;16.174;2022-12-07T10:58:04;8.80;53.90
38860;DHT22;24609;48.316;16.174;2022-12-07T11:00:46;8.80;54.10
38860;DHT22;24609;48.316;16.174;2022-12-07T11:11:26;7.50;57.40
38860;DHT22;24609;48.316;16.174;2022-12-07T11:19:28;7.50;55.40
38860;DHT22;24609;48.316;16.174;2022-12-07T11:22:16;6.90;49.40
38860;DHT22;24609;48.316;16.174;2022-12-07T11:27:50;6.40;62.20
38860;DHT22;24609;48.316;16.174;2022-12-07T11:30:26;6.20;46.80
38860;DHT22;24609;48.316;16.174;2022-12-07T11:33:15;6.10;68.00
38860;DHT22;24609;48.316;16.174;2022-12-07T11:38:52;8.50;68.60
38860;DHT22;24609;48.316;16.174;2022-12-07T11:41:33;7.40;68.60
38860;DHT22;24609;48.316;16.174;2022-12-07T11:44:13;6.90;71.10
38860;DHT22;24609;48.316;16.174;2022-12-07T11:46:57;6.80;65.50
38860;DHT22;24609;48.316;16.174;2022-12-07T11:52:24;6.60;68.10
38860;DHT22;24609;48.316;16.174;2022-12-07T11:54:52;6.60;50.20
38860;DHT22;24609;48.316;16.174;2022-12-07T11:57:48;6.60;49.70
38860;DHT22;24609;48.316;16.174;2022-12-07T12:00:17;6.60;48.80
38860;DHT22;24609;48.316;16.174;2022-12-07T12:02:58;6.50;47.00
38860;DHT22;24609;48.316;16.174;2022-12-07T12:05:25;6.40;44.80
38860;DHT22;24609;48.316;16.174;2022-12-07T12:10:54;6.40;42.60
38860;DHT22;24609;48.316;16.174;2022-12-07T12:13:30;6.30;45.00
38860;DHT22;24609;48.316;16.174;2022-12-07T12:21:32;6.30;43.80
38860;DHT22;24609;48.316;16.174;2022-12-07T12:24:13;6.30;46.50
38860;DHT22;24609;48.316;16.174;2022-12-07T12:26:49;6.30;45.80
38860;DHT22;24609;48.316;16.174;2022-12-07T12:29:32;6.30;43.00
38860;DHT22;24609;48.316;16.174;2022-12-07T12:32:12;6.30;45.90
38860;DHT22;24609;48.316;16.174;2022-12-07T12:34:42;6.30;45.00
38860;DHT22;24609;48.316;16.174;2022-12-07T12:42:46;6.40;44.10
38860;DHT22;24609;48.316;16.174;2022-12-07T12:48:01;6.30;44.40
38860;DHT22;24609;48.316;16.174;2022-12-07T12:50:28;6.10;43.50
38860;DHT22;24609;48.316;16.174;2022-12-07T12:58:38;6.10;37.20
38860;DHT22;24609;48.316;16.174;2022-12-07T13:01:33;6.00;36.70
38860;DHT22;24609;48.316;16.174;2022-12-07T13:04:02;5.90;36.00
38860;DHT22;24609;48.316;16.174;2022-12-07T13:08:56;5.90;31.80
38860;DHT22;24609;48.316;16.174;2022-12-07T13:11:37;5.80;35.10
38860;DHT22;24609;48.316;16.174;2022-12-07T13:17:03;5.80;37.30
38860;DHT22;24609;48.316;16.174;2022-12-07T13:25:22;5.70;37.40
38860;DHT22;24609;48.316;16.174;2022-12-07T13:28:06;5.70;35.10
38860;DHT22;24609;48.316;16.174;2022-12-07T13:31:04;5.80;35.30
38860;DHT22;24609;48.316;16.174;2022-12-07T13:33:29;5.70;34.80
38860;DHT22;24609;48.316;16.174;2022-12-07T13:35:55;5.70;29.60
38860;DHT22;24609;48.316;16.174;2022-12-07T13:38:33;5.70;30.30
38860;DHT22;24609;48.316;16.174;2022-12-07T13:41:14;5.70;33.40
38860;DHT22;24609;48.316;16.174;2022-12-07T13:43:45;5.70;31.40
38860;DHT22;24609;48.316;16.174;2022-12-07T13:46:11;5.60;39.60
38860;DHT22;24609;48.316;16.174;2022-12-07T13:48:49;5.60;37.00
38860;DHT22;24609;48.316;16.174;2022-12-07T13:51:26;5.50;36.80
38860;DHT22;24609;48.316;16.174;2022-12-07T13:53:57;5.40;38.10
38860;DHT22;24609;48.316;16.174;2022-12-07T13:56:34;5.30;41.90
38860;DHT22;24609;48.316;16.174;2022-12-07T13:59:00;5.20;40.50
38860;DHT22;24609;48.316;16.174;2022-12-07T14:01:26;5.20;36.10
38860;DHT22;24609;48.316;16.174;2022-12-07T14:03:52;5.20;40.40
38860;DHT22;24609;48.316;16.174;2022-12-07T14:06:26;5.20;34.60
38860;DHT22;24609;48.316;16.174;2022-12-07T14:09:16;5.20;33.00
38860;DHT22;24609;48.316;16.174;2022-12-07T14:11:42;5.10;39.00
38860;DHT22;24609;48.316;16.174;2022-12-07T14:14:15;5.10;33.50
38860;DHT22;24609;48.316;16.174;2022-12-07T14:16:42;5.00;34.20
38860;DHT22;24609;48.316;16.174;2022-12-07T14:19:43;4.90;35.00
38860;DHT22;24609;48.316;16.174;2022-12-07T14:22:28;4.80;34.50
38860;DHT22;24609;48.316;16.174;2022-12-07T14:27:39;4.70;32.30
38860;DHT22;24609;48.316;16.174;2022-12-07T14:30:06;4.70;40.70
38860;DHT22;24609;48.316;16.174;2022-12-07T14:32:34;4.70;41.70
38860;DHT22;24609;48.316;16.174;2022-12-07T14:37:27;4.70;39.40
38860;DHT22;24609;48.316;16.174;2022-12-07T14:39:54;4.80;42.80
38860;DHT22;24609;48.316;16.174;2022-12-07T14:42:20;4.90;32.60
38860;DHT22;24609;48.316;16.174;2022-12-07T14:44:45;4.90;34.90
38860;DHT22;24609;48.316;16.174;2022-12-07T14:47:11;5.00;33.50
38860;DHT22;24609;48.316;16.174;2022-12-07T14:49:37;5.00;36.70
38860;DHT22;24609;48.316;16.174;2022-12-07T14:52:03;4.90;41.10
38860;DHT22;24609;48.316;16.174;2022-12-07T14:54:31;4.90;41.60
38860;DHT22;24609;48.316;16.174;2022-12-07T14:56:58;4.90;33.90
38860;DHT22;24609;48.316;16.174;2022-12-07T14:59:23;4.90;35.80
38860;DHT22;24609;48.316;16.174;2022-12-07T15:01:49;4.80;36.70
38860;DHT22;24609;48.316;16.174;2022-12-07T15:04:15;4.90;36.30
38860;DHT22;24609;48.316;16.174;2022-12-07T15:06:41;4.80;31.90
38860;DHT22;24609;48.316;16.174;2022-12-07T15:09:10;4.80;30.30
38860;DHT22;24609;48.316;16.174;2022-12-07T15:11:36;4.80;36.50
38860;DHT22;24609;48.316;16.174;2022-12-07T15:14:02;4.80;32.40
38860;DHT22;24609;48.316;16.174;2022-12-07T15:16:36;4.80;30.30
38860;DHT22;24609;48.316;16.174;2022-12-07T15:19:02;4.80;30.50
38860;DHT22;24609;48.316;16.174;2022-12-07T15:21:27;4.80;31.90
38860;DHT22;24609;48.316;16.174;2022-12-07T15:23:53;4.70;34.00
38860;DHT22;24609;48.316;16.174;2022-12-07T15:26:19;4.70;33.40
38860;DHT22;24609;48.316;16.174;2022-12-07T15:28:45;4.80;34.00
38860;DHT22;24609;48.316;16.174;2022-12-07T15:31:17;4.80;30.20
38860;DHT22;24609;48.316;16.174;2022-12-07T15:33:43;4.70;33.90
38860;DHT22;24609;48.316;16.174;2022-12-07T15:36:20;4.70;38.80
38860;DHT22;24609;48.316;16.174;2022-12-07T15:38:47;4.60;34.80
38860;DHT22;24609;48.316;16.174;2022-12-07T15:41:13;4.60;33.90
38860;DHT22;24609;48.316;16.174;2022-12-07T15:43:38;4.60;32.80
38860;DHT22;24609;48.316;16.174;2022-12-07T15:46:23;4.60;35.60
38860;DHT22;24609;48.316;16.174;2022-12-07T15:48:48;4.60;32.90
38860;DHT22;24609;48.316;16.174;2022-12-07T15:51:14;4.50;36.70
38860;DHT22;24609;48.316;16.174;2022-12-07T15:53:40;4.50;35.60
38860;DHT22;24609;48.316;16.174;2022-12-07T15:56:07;4.40;39.50
38860;DHT22;24609;48.316;16.174;2022-12-07T15:58:33;4.40;41.00
38860;DHT22;24609;48.316;16.174;2022-12-07T16:00:58;4.40;37.50
38860;DHT22;24609;48.316;16.174;2022-12-07T16:03:24;4.40;40.70
38860;DHT22;24609;48.316;16.174;2022-12-07T16:05:51;4.40;37.00
38860;DHT22;24609;48.316;16.174;2022-12-07T16:08:17;4.30;39.70
38860;DHT22;24609;48.316;16.174;2022-12-07T16:10:43;4.30;40.90
38860;DHT22;24609;48.316;16.174;2022-12-07T16:13:09;4.20;36.20
38860;DHT22;24609;48.316;16.174;2022-12-07T16:15:42;4.10;37.40
38860;DHT22;24609;48.316;16.174;2022-12-07T16:18:08;4.00;36.30
38860;DHT22;24609;48.316;16.174;2022-12-07T16:20:34;3.90;44.00
38860;DHT22;24609;48.316;16.174;2022-12-07T16:22:59;3.80;43.30
38860;DHT22;24609;48.316;16.174;2022-12-07T16:25:25;3.70;46.60
38860;DHT22;24609;48.316;16.174;2022-12-07T16:27:52;3.70;44.80
38860;DHT22;24609;48.316;16.174;2022-12-07T16:30:18;3.50;47.70
38860;DHT22;24609;48.316;16.174;2022-12-07T16:32:44;3.40;47.30
38860;DHT22;24609;48.316;16.174;2022-12-07T16:35:10;3.30;46.50
38860;DHT22;24609;48.316;16.174;2022-12-07T16:37:37;3.20;59.00
38860;DHT22;24609;48.316;16.174;2022-12-07T16:40:03;3.20;56.90
38860;DHT22;24609;48.316;16.174;2022-12-07T16:42:32;3.20;58.70
38860;DHT22;24609;48.316;16.174;2022-12-07T16:44:58;3.10;61.70
38860;DHT22;24609;48.316;16.174;2022-12-07T16:47:23;3.00;70.40
38860;DHT22;24609;48.316;16.174;2022-12-07T16:49:49;3.10;74.80
38860;DHT22;24609;48.316;16.174;2022-12-07T16:52:15;3.10;73.40
38860;DHT22;24609;48.316;16.174;2022-12-07T16:54:40;3.10;59.90
38860;DHT22;24609;48.316;16.174;2022-12-07T16:57:06;3.20;53.20
38860;DHT22;24609;48.316;16.174;2022-12-07T16:59:32;3.20;54.70
38860;DHT22;24609;48.316;16.174;2022-12-07T17:01:57;3.20;57.80
38860;DHT22;24609;48.316;16.174;2022-12-07T17:04:23;3.20;59.40
38860;DHT22;24609;48.316;16.174;2022-12-07T17:06:49;3.20;62.20
38860;DHT22;24609;48.316;16.174;2022-12-07T17:09:15;3.10;66.20
38860;DHT22;24609;48.316;16.174;2022-12-07T17:11:43;3.10;69.30
38860;DHT22;24609;48.316;16.174;2022-12-07T17:14:09;3.10;71.50
38860;DHT22;24609;48.316;16.174;2022-12-07T17:16:53;3.00;71.10
38860;DHT22;24609;48.316;16.174;2022-12-07T17:19:19;3.00;71.30
38860;DHT22;24609;48.316;16.174;2022-12-07T17:21:45;3.00;83.40
38860;DHT22;24609;48.316;16.174;2022-12-07T17:24:13;2.90;83.90
38860;DHT22;24609;48.316;16.174;2022-12-07T17:26:40;3.00;79.00
38860;DHT22;24609;48.316;16.174;2022-12-07T17:29:07;2.90;91.80